KHKA/HKA METAR and TAF weather

Enter ICAO airport designator
Station Type Date Time Source
KHKA METAR 2019/08/23 14:53 UTC NOAA

KHKA 231453Z AUTO 00000KT 10SM CLR 26/22 A3003 RMK AO2 SLP167 60002 T02560217 53008 $


Station Type Date Time Source
KHKA Decoded METAR 2019/08/23 14:53 UTC NOAA

Station name not available
Aug 23, 2019 - 10:53 AM EDT / 2019.08.23 1453 UTC
Wind: Calm:0
Visibility: 10 mile(s):0
Sky conditions: clear
Temperature: 78.1 F (25.6 C)
Dew Point: 71.1 F (21.7 C)
Relative Humidity: 79%
Pressure (altimeter): 30.03 in. Hg (1016 hPa)
Pressure tendency: 0.02 inches (0.8 hPa) higher than three hours ago
ob: KHKA 231453Z AUTO 00000KT 10SM CLR 26/22 A3003 RMK AO2 SLP167 60002 T02560217 53008
cycle: 15

Station Type Date Time Source
KHKA TAF UTC NOAA

Error!

Example: see airport list